createdAt,value
2023-03-28T00:02:02.185Z,58.65
2023-03-28T00:07:04.005Z,58.79
2023-03-28T00:12:05.554Z,59.19
2023-03-28T00:17:07.629Z,59.29
2023-03-28T00:22:08.969Z,59.40
2023-03-28T00:27:10.567Z,58.99
2023-03-28T00:32:11.940Z,59.39
2023-03-28T00:37:17.147Z,59.68
2023-03-28T00:42:23.442Z,59.48
2023-03-28T00:47:27.443Z,59.31
2023-03-28T00:52:34.384Z,59.58
2023-03-28T00:57:38.158Z,59.44
2023-03-28T01:02:45.558Z,59.83
2023-03-28T01:07:52.866Z,59.81
2023-03-28T01:12:55.971Z,59.89
2023-03-28T01:18:02.925Z,59.68
2023-03-28T01:23:41.319Z,59.42
2023-03-28T01:28:51.819Z,59.47
2023-03-28T01:34:20.574Z,59.40
2023-03-28T01:39:39.134Z,59.01
2023-03-28T01:45:00.280Z,58.10
2023-03-28T01:50:31.127Z,58.54
2023-03-28T01:55:48.577Z,58.73
2023-03-28T02:01:16.606Z,58.75
2023-03-28T02:06:21.217Z,58.52
2023-03-28T02:11:25.393Z,59.06
2023-03-28T02:16:27.721Z,59.54
2023-03-28T02:21:39.336Z,59.15
2023-03-28T02:26:41.474Z,59.17
2023-03-28T02:31:42.948Z,59.21
2023-03-28T02:36:50.336Z,59.32
2023-03-28T02:42:29.012Z,59.44
2023-03-28T02:47:59.574Z,59.42
2023-03-28T02:53:13.928Z,58.82
2023-03-28T02:58:26.295Z,59.34
2023-03-28T03:03:28.013Z,59.12
2023-03-28T03:08:30.035Z,59.40
2023-03-28T03:13:31.415Z,59.13
2023-03-28T03:18:34.812Z,59.34
2023-03-28T03:23:36.636Z,59.79
2023-03-28T03:28:38.000Z,59.85
2023-03-28T03:33:39.455Z,60.18
2023-03-28T03:38:40.918Z,60.09
2023-03-28T03:43:42.279Z,60.59
2023-03-28T03:48:49.200Z,60.85
2023-03-28T03:53:51.683Z,61.23
2023-03-28T03:58:53.034Z,60.89
2023-03-28T04:03:54.471Z,60.87
2023-03-28T04:08:56.211Z,60.52
2023-03-28T04:13:57.525Z,61.07
2023-03-28T04:18:59.447Z,60.42
2023-03-28T04:24:01.755Z,60.67
2023-03-28T04:29:04.380Z,61.14
2023-03-28T04:34:06.679Z,61.52
2023-03-28T04:39:08.622Z,62.14
2023-03-28T04:44:10.028Z,61.94
2023-03-28T04:49:11.465Z,62.28
2023-03-28T04:54:12.901Z,61.87
2023-03-28T04:59:15.530Z,62.16
2023-03-28T05:04:18.385Z,62.48
2023-03-28T05:09:19.766Z,62.88
2023-03-28T05:14:21.410Z,63.05
2023-03-28T05:19:22.945Z,62.99
2023-03-28T05:24:24.406Z,62.62
2023-03-28T05:29:25.796Z,62.89
2023-03-28T05:34:29.321Z,62.54
2023-03-28T05:39:30.662Z,62.95
2023-03-28T05:44:32.051Z,62.60
2023-03-28T05:49:33.719Z,62.68
2023-03-28T05:54:35.328Z,63.09
2023-03-28T05:59:40.587Z,63.26
2023-03-28T06:04:43.455Z,62.54
2023-03-28T06:09:45.963Z,63.13
2023-03-28T06:14:47.327Z,62.44
2023-03-28T06:19:48.983Z,62.40
2023-03-28T06:24:50.381Z,62.07
2023-03-28T06:29:51.731Z,61.12
2023-03-28T06:34:53.174Z,61.34
2023-03-28T06:39:54.561Z,61.21
2023-03-28T06:44:55.946Z,61.18
2023-03-28T06:49:57.554Z,60.64
2023-03-28T06:54:59.056Z,60.66
2023-03-28T07:00:00.621Z,59.57
2023-03-28T07:05:02.046Z,60.13
2023-03-28T07:10:03.693Z,59.62
2023-03-28T07:15:05.973Z,59.06
2023-03-28T07:20:07.795Z,58.93
2023-03-28T07:25:09.358Z,58.15
2023-03-28T07:30:12.242Z,57.86
2023-03-28T07:35:13.731Z,57.69
2023-03-28T07:40:16.375Z,57.01
2023-03-28T07:45:17.984Z,56.88
2023-03-28T07:50:19.922Z,56.95
2023-03-28T07:55:21.850Z,56.21
2023-03-28T08:00:23.890Z,55.57
2023-03-28T08:05:26.411Z,55.77
2023-03-28T08:10:27.935Z,54.79
2023-03-28T08:15:29.393Z,54.95
2023-03-28T08:20:30.889Z,53.72
2023-03-28T08:25:32.250Z,53.60
2023-03-28T08:30:33.632Z,53.91
2023-03-28T08:35:35.686Z,53.04
2023-03-28T08:40:44.882Z,52.57
2023-03-28T08:45:52.080Z,51.43
2023-03-28T08:51:01.018Z,51.30
2023-03-28T08:56:06.246Z,50.75
2023-03-28T09:01:09.956Z,48.63
2023-03-28T09:06:30.851Z,48.26
2023-03-28T09:11:45.335Z,47.35
2023-03-28T09:16:56.215Z,46.36
2023-03-28T09:22:16.464Z,45.26
2023-03-28T09:27:32.788Z,45.56
2023-03-28T09:32:39.498Z,45.04
2023-03-28T09:37:42.527Z,45.00
2023-03-28T09:42:55.251Z,45.06
2023-03-28T09:47:57.161Z,44.97
2023-03-28T09:52:59.073Z,44.85
2023-03-28T09:58:12.149Z,44.12
2023-03-28T10:03:29.336Z,43.60
2023-03-28T10:08:40.683Z,43.26
2023-03-28T10:13:52.777Z,43.21
2023-03-28T10:18:54.653Z,42.39
2023-03-28T10:24:10.091Z,41.47
2023-03-28T10:29:13.840Z,41.61
2023-03-28T10:34:33.517Z,41.57
2023-03-28T10:39:35.448Z,41.44
2023-03-28T10:44:36.925Z,41.21
2023-03-28T10:49:47.046Z,40.79
2023-03-28T10:55:04.610Z,40.20
2023-03-28T11:00:19.478Z,39.18
2023-03-28T11:06:06.289Z,38.68
2023-03-28T11:11:42.142Z,38.41
2023-03-28T11:17:23.882Z,38.44
2023-03-28T11:23:02.839Z,38.13
2023-03-28T11:28:15.868Z,37.88
2023-03-28T11:33:24.883Z,37.05
2023-03-28T11:38:40.671Z,36.41
2023-03-28T11:43:49.583Z,36.38
2023-03-28T11:49:15.389Z,36.33
2023-03-28T11:54:22.170Z,36.41
2023-03-28T11:59:26.432Z,35.93
2023-03-28T12:04:33.799Z,35.51
2023-03-28T12:09:50.127Z,35.46
2023-03-28T12:15:00.399Z,35.64
2023-03-28T12:20:02.175Z,35.81
2023-03-28T12:25:21.439Z,35.76
2023-03-28T12:30:35.618Z,34.37
2023-03-28T12:35:52.432Z,33.49
2023-03-28T12:41:05.915Z,32.46
2023-03-28T12:46:08.593Z,32.46
2023-03-28T12:51:15.960Z,32.17
2023-03-28T12:56:17.476Z,32.28
2023-03-28T13:01:45.504Z,31.85
2023-03-28T13:07:04.051Z,31.87
2023-03-28T13:12:26.106Z,32.02
2023-03-28T13:17:34.018Z,31.55
2023-03-28T13:22:54.550Z,30.98
2023-03-28T13:28:00.388Z,31.30
2023-03-28T13:33:12.738Z,30.98
2023-03-28T13:38:29.151Z,31.07
2023-03-28T13:43:33.382Z,31.02
2023-03-28T13:48:43.987Z,30.95
2023-03-28T13:53:48.676Z,30.85
2023-03-28T13:58:52.201Z,30.57
2023-03-28T14:03:54.867Z,30.86
2023-03-28T14:09:01.154Z,31.12
2023-03-28T14:14:13.021Z,30.57
2023-03-28T14:19:21.997Z,30.20
2023-03-28T14:24:26.639Z,30.47
2023-03-28T14:29:27.989Z,30.94
2023-03-28T14:34:38.732Z,31.07
2023-03-28T14:39:40.159Z,30.65
2023-03-28T14:44:44.538Z,30.99
2023-03-28T14:49:46.799Z,30.55
2023-03-28T14:54:49.827Z,29.63
2023-03-28T14:59:52.427Z,30.09
2023-03-28T15:04:58.362Z,30.44
2023-03-28T15:10:21.822Z,29.72
2023-03-28T15:15:28.522Z,29.84
2023-03-28T15:20:34.452Z,30.46
2023-03-28T15:25:36.653Z,30.56
2023-03-28T15:30:43.518Z,30.92
2023-03-28T15:35:45.139Z,30.83
2023-03-28T15:40:49.443Z,30.58
2023-03-28T15:46:02.056Z,30.59
2023-03-28T15:51:06.130Z,30.71
2023-03-28T15:56:29.570Z,30.85
2023-03-28T16:01:32.698Z,31.13
2023-03-28T16:06:41.720Z,31.52
2023-03-28T16:11:44.854Z,31.65
2023-03-28T16:16:46.518Z,31.92
2023-03-28T16:21:48.395Z,31.76
2023-03-28T16:26:49.811Z,31.59
2023-03-28T16:31:51.232Z,31.91
2023-03-28T16:36:55.914Z,32.26
2023-03-28T16:41:57.275Z,32.64
2023-03-28T16:47:00.141Z,33.07
2023-03-28T16:52:01.599Z,33.26
2023-03-28T16:57:04.095Z,33.32
2023-03-28T17:02:05.594Z,33.84
2023-03-28T17:07:06.976Z,34.43
2023-03-28T17:12:08.922Z,34.27
2023-03-28T17:17:10.361Z,35.00
2023-03-28T17:22:13.069Z,35.31
2023-03-28T17:27:14.677Z,35.06
2023-03-28T17:32:16.084Z,35.56
2023-03-28T17:37:17.676Z,35.72
2023-03-28T17:42:19.103Z,36.03
2023-03-28T17:47:20.442Z,36.26
2023-03-28T17:52:21.776Z,36.30
2023-03-28T17:57:23.323Z,36.83
2023-03-28T18:02:24.979Z,37.32
2023-03-28T18:07:27.030Z,37.25
2023-03-28T18:12:28.420Z,37.64
2023-03-28T18:17:30.278Z,37.87
2023-03-28T18:22:31.805Z,37.95
2023-03-28T18:27:33.345Z,37.85
2023-03-28T18:32:35.989Z,37.98
2023-03-28T18:37:37.417Z,38.14
2023-03-28T18:42:38.899Z,38.14
2023-03-28T18:47:41.006Z,38.22
2023-03-28T18:52:42.844Z,38.38
2023-03-28T18:57:44.637Z,38.71
2023-03-28T19:02:46.955Z,38.60
2023-03-28T19:07:48.780Z,38.51
2023-03-28T19:12:51.479Z,38.38
2023-03-28T19:17:54.497Z,38.52
2023-03-28T19:22:55.969Z,38.58
2023-03-28T19:27:57.306Z,38.97
2023-03-28T19:32:58.789Z,38.96
2023-03-28T19:38:02.294Z,38.93
2023-03-28T19:43:03.698Z,39.26
2023-03-28T19:48:05.293Z,39.21
2023-03-28T19:53:06.727Z,39.42
2023-03-28T19:58:10.057Z,39.33
2023-03-28T20:03:11.573Z,39.39
2023-03-28T20:08:13.586Z,38.95
2023-03-28T20:13:16.645Z,38.96
2023-03-28T20:18:20.294Z,38.79
2023-03-28T20:23:23.713Z,39.01
2023-03-28T20:28:25.302Z,38.70
2023-03-28T20:33:26.973Z,38.60
2023-03-28T20:38:29.896Z,38.83
2023-03-28T20:43:36.654Z,38.88
2023-03-28T20:48:38.340Z,39.20
2023-03-28T20:53:44.907Z,38.43
2023-03-28T20:58:46.574Z,38.86
2023-03-28T21:03:50.962Z,39.42
2023-03-28T21:08:54.356Z,40.53
2023-03-28T21:13:56.987Z,41.72
2023-03-28T21:18:59.748Z,43.15
2023-03-28T21:24:02.876Z,43.50
2023-03-28T21:29:04.611Z,43.87
2023-03-28T21:34:05.950Z,44.44
2023-03-28T21:39:07.801Z,44.36
2023-03-28T21:44:09.184Z,44.70
2023-03-28T21:49:10.931Z,44.53
2023-03-28T21:54:12.534Z,44.53
2023-03-28T21:59:13.934Z,44.89
2023-03-28T22:04:15.766Z,45.55
2023-03-28T22:09:17.108Z,46.10
2023-03-28T22:14:18.454Z,46.87
2023-03-28T22:19:20.076Z,47.76
2023-03-28T22:24:21.801Z,49.66
2023-03-28T22:29:23.331Z,50.92
2023-03-28T22:34:24.868Z,51.66
2023-03-28T22:39:26.192Z,51.37
2023-03-28T22:44:27.621Z,51.68
2023-03-28T22:49:31.348Z,51.16
2023-03-28T22:54:34.521Z,51.25
2023-03-28T22:59:36.237Z,51.25
2023-03-28T23:04:38.425Z,51.63
2023-03-28T23:09:41.605Z,51.88
2023-03-28T23:14:42.983Z,51.60
2023-03-28T23:19:44.645Z,52.34
2023-03-28T23:24:46.786Z,52.42
2023-03-28T23:29:48.223Z,52.36
2023-03-28T23:34:49.596Z,52.36
2023-03-28T23:39:51.302Z,53.33
2023-03-28T23:44:52.705Z,53.05
2023-03-28T23:49:54.053Z,53.24
2023-03-28T23:54:55.879Z,53.02
2023-03-28T23:59:57.396Z,53.30
